Teruhou Maru No.22 — JD3202 — position and weather

sailwx.info

Track history (hours):
 
Tides and Currents Weather Stations Pressure Air Temp Water Temp Dewpoint Dewpoint Depression Visibility Wind Speed Wind Dir Waves Ship Positions

Teruhou Maru No.22

Last reported at 2014-Oct-31 09:34 UTC. Time now 2014-Oct-31 15:46 UTC.
Position N 34°08' E 135°00'.

Length 76 m; draft 4 m.

Type: Cargo ship. MMSI: 431002552.

Date/timePositionNaut miles runAvg speedWind from/ knotsBaromVisibWave heightAir tempDewpointWater temp
2014-Oct-31 09:34N 34°08' E 135°00'1411.7
2014-Oct-31 08:24N 34°21' E 135°00'1011.8
2014-Oct-31 07:31N 34°31' E 135°03'9 7.9
2014-Oct-31 06:23N 34°37' E 134°55'6 0.7
2014-Oct-30 21:28N 34°41' E 134°49'1010.7
2014-Oct-30 20:33N 34°38' E 134°60'9 9.3
2014-Oct-30 19:33N 34°29' E 135°03'30 0.7
2014-Oct-28 23:20N 33°59' E 135°03'911.9
2014-Oct-28 22:33N 34°08' E 135°03'1211.7
2014-Oct-28 21:31N 34°19' E 134°59'1212.2
2014-Oct-28 20:33N 34°31' E 135°03'1110.8
2014-Oct-28 19:30N 34°38' E 134°52'4 0.2
2014-Oct-28 00:25N 34°41' E 134°48'6 3.1
2014-Oct-27 22:29N 34°38' E 134°54'1010.6
2014-Oct-27 21:33N 34°34' E 135°05'2611.2
2014-Oct-27 19:15N 34°09' E 135°01'  
2014-Oct-24 10:32N 34°05' E 135°01'1411.2
2014-Oct-24 09:18N 34°19' E 134°58'911.2
2014-Oct-24 08:32N 34°27' E 135°01'10 9.7
2014-Oct-24 07:32N 34°37' E 135°00'3 0.3
2014-Oct-23 20:31N 34°37' E 134°57'9 9.3
2014-Oct-23 19:33N 34°31' E 135°04'  
Track history (hours):
 
Tides and Currents Weather Stations Pressure Air Temp Water Temp Dewpoint Dewpoint Depression Visibility Wind Speed Wind Dir Waves Ship Positions

Teruhou Maru No.22

Last reported at 2014-Oct-31 09:34 UTC. Time now 2014-Oct-31 15:46 UTC.
Position N 34°08' E 135°00'.

Length 76 m; draft 4 m.

Type: Cargo ship. MMSI: 431002552.

Date/timePositionNaut miles runAvg speedWind from/ knotsBaromVisibWave heightAir tempDewpointWater temp
2014-Oct-31 09:34N 34°08' E 135°00'1411.7
2014-Oct-31 08:24N 34°21' E 135°00'1011.8
2014-Oct-31 07:31N 34°31' E 135°03'9 7.9
2014-Oct-31 06:23N 34°37' E 134°55'6 0.7
2014-Oct-30 21:28N 34°41' E 134°49'1010.7
2014-Oct-30 20:33N 34°38' E 134°60'9 9.3
2014-Oct-30 19:33N 34°29' E 135°03'30 0.7
2014-Oct-28 23:20N 33°59' E 135°03'911.9
2014-Oct-28 22:33N 34°08' E 135°03'1211.7
2014-Oct-28 21:31N 34°19' E 134°59'1212.2
2014-Oct-28 20:33N 34°31' E 135°03'1110.8
2014-Oct-28 19:30N 34°38' E 134°52'4 0.2
2014-Oct-28 00:25N 34°41' E 134°48'6 3.1
2014-Oct-27 22:29N 34°38' E 134°54'1010.6
2014-Oct-27 21:33N 34°34' E 135°05'2611.2
2014-Oct-27 19:15N 34°09' E 135°01'  
2014-Oct-24 10:32N 34°05' E 135°01'1411.2
2014-Oct-24 09:18N 34°19' E 134°58'911.2
2014-Oct-24 08:32N 34°27' E 135°01'10 9.7
2014-Oct-24 07:32N 34°37' E 135°00'3 0.3
2014-Oct-23 20:31N 34°37' E 134°57'9 9.3
2014-Oct-23 19:33N 34°31' E 135°04'  

Dump ship's entire track history